Terminal Aerodrome Forecast
Issued by NWS

Home | Current Version | Previous Version | Text Only | Print | Product List | Glossary On
Versions: 1 2 3 4 5 6 7 8 9 10 11 12 13 14 15
000
FTUS42 TJSJ 260535
TAFJMZ
TAF
TJMZ 260535Z 2606/2706 06005KT P6SM FEW025 SCT045
     FM261200 07008KT P6SM SCT030 SCT040
     FM261600 29006KT P6SM VCTS SCT030CB BKN040
     FM262300 06006KT P6SM SCT025 SCT040
      AMD NOT SKED=

USA.gov is the U.S. government's official web portal to all federal, state and local government web resources and services.